Terminal Aerodrome Forecast
Issued by NWS Missoula, MT

Home | Current Version | Previous Version | Text Only | Print | Product List | Glossary On
Versions: 1 2 3 4 5 6 7 8 9 10 11 12 13 14 15 16 17 18 19
000
FTUS45 KMSO 222053 AAA
TAFGPI
TAF AMD
KGPI 222053Z 2221/2318 16012KT P6SM SKC
     FM230100 18006KT P6SM OVC100
     FM230600 19006KT P6SM VCSH OVC050=

USA.gov is the U.S. government's official web portal to all federal, state and local government web resources and services.